Tiempo atmosférico en la estación meteorológica de Andorra, Teruel (762 m.)



Fecha
DESCASC
Temp. máxima en grados centígrados (hora)
DESCASC
Temp. mínima en grados centígrados (hora)
DESCASC
Temp. media en grados centígrados
DESCASC
Racha de viento máxima en m/sg (hora)
DESCASC
Velocidad máxima media en intervalos de 10 minutos(hora)
DESCASC
Precipitaciones diarias en mm
DESCASC
Precipitaciones de 00:00 a 06:00 en mm
DESCASC
Precipitaciones de 06:00 a 12:00 en mm
DESCASC
Precipitaciones de 12:00 a 18:00 en mm
DESCASC
Precipitaciones de 18:00 a 24:00 en mm
DESCASC
13-02-2020 16 (13:40) 7.7 (03:30) 11.8 10.56 (17:20) 8.06 (11:00) 0 0 0 0 0
12-02-2020 12.1 (14:30) 7.9 (08:10) 10 6.67 (16:30) 5.28 (17:10) 0 0 0 0 0
11-02-2020 15 (12:20) 9.7 (08:00) 12.3 13.61 (02:30) 10.83 (02:30) 0 0 0 0 0
10-02-2020 18.9 (16:40) 9.2 (00:00) 14 14.44 (08:30) 11.94 (07:30) 0 0 0 0 0
09-02-2020 14.8 (15:20) 4.4 (00:00) 9.6 13.89 (23:10) 11.67 (23:40) 0 0 0 0 0
08-02-2020 11.4 (16:50) 4.7 (00:00) 8 7.22 (06:40) 6.67 (06:40) 0 0 0 0 0
07-02-2020 9.1 (15:10) 2.8 (00:00) 6 4.72 (08:40) 4.17 (08:40) 0 0 0 0 0
06-02-2020 9.9 (15:20) 1 (00:00) 5.4 8.61 (02:30) 6.67 (02:40) 0 0 0 0 0
05-02-2020 10.2 (14:40) 2.1 (00:00) 6.1 14.44 (03:00) 11.11 (02:00) 0 0 0 0 0
04-02-2020 15.2 (14:20) 5.2 (00:00) 10.2 26.39 (22:00) 22.22 (21:50) 0 0 0 0 0
03-02-2020 20.3 (14:40) 9.5 (06:10) 14.9 14.17 (22:50) 12.22 (22:50) 0 0 0 0 0
02-02-2020 19.7 (16:30) 10.6 (00:00) 15.2 15 (07:10) 12.22 (07:10) 0 0 0 0 0
01-02-2020 18.1 (14:20) 9.8 (00:00) 14 16.39 (08:50) 13.33 (08:40) 0.2 0 0.2 0 0
31-01-2020 16.3 (15:30) 9 (00:00) 12.6 14.17 (11:10) 10.56 (11:00) 0 0 0 0 0
30-01-2020 13.4 (15:00) 9.3 (00:00) 11.3 17.22 (14:20) 13.89 (14:20) 0 0 0 0 0
29-01-2020 15.1 (16:10) 10 (00:00) 12.6 16.11 (13:20) 12.22 (11:10) 0 0 0 0 0
28-01-2020 14.7 (13:50) 7.3 (00:00) 11 20.83 (08:50) 16.39 (08:50) 0 0 0 0 0
27-01-2020 9.1 (15:10) 3.1 (00:00) 6.1 15 (02:10) 12.22 (02:10) 0 0 0 0 0
26-01-2020 7.4 (16:30) 2.6 (00:00) 5 11.11 (15:00) 8.61 (15:00) 0 0 0 0 0
25-01-2020 8 (14:10) 3.3 (00:00) 5.6 6.11 (21:30) 4.72 (03:50) 0 0 0 0 0
24-01-2020 7.3 (16:40) 2.1 (00:00) 4.7 5.83 (00:20) 5 (22:50) 0 0 0 0 0
23-01-2020 4.7 (19:50) 1.2 (00:00) 2.9 6.11 (22:40) 5.28 (22:40) 0.4 0.4 0 0 0
22-01-2020 1.9 (23:10) -0.1 (00:00) 0.9 6.67 (15:50) 5.56 (15:50) -- -- 0 0 2.4
21-01-2020 3.1 (15:20) -1.6 (-00:0) 0.7 12.78 (15:20) 10 (15:30) -- -- -- -- --
20-01-2020 0.4 (00:10) -2.8 (-00:0) -1.2 13.33 (04:20) 10 (04:20) -- -- -- -- --
19-01-2020 5.1 (00:00) 0.3 (00:00) 2.7 15.83 (20:10) 11.67 (20:20) 12.2 0.2 11 1 0
18-01-2020 10.5 (13:40) 1.9 (00:00) 6.2 16.67 (23:40) 12.78 (23:50) 0.2 0 0 0 0.2

Gráficas

Temp. máximas Temp. mínimas Temp. medias Precipitaciones Rachas de viento máximas Velocidades máximas media en intervalos de 10 minutos

Datos horarios

Fecha y hora oficial Temperatura (ºC) Velocidad del viento (km/h) Dirección del viento Racha (km/h) Dirección de racha Precipitación (mm) Presión (hPa) Tendencia (hPa) Humedad (%)
2020-02-16 23:00:00 12.4 15 Oeste 23 Oeste 0 -- -- 57
2020-02-16 22:00:00 11.7 16 Oeste 18 Oeste 0 -- -- 72
2020-02-16 21:00:00 12.2 9 Sudoeste 10 Sudoeste 0 -- -- 74
2020-02-16 20:00:00 12.9 4 Este 9 Nordeste 0 -- -- 72
2020-02-16 19:00:00 13.2 7 Norte 10 Nordeste 0 -- -- 68
2020-02-16 18:00:00 14.2 9 Este 19 Este 0 -- -- 64
2020-02-16 17:00:00 14.6 17 Este 26 Este 0 -- -- 62
2020-02-16 16:00:00 15.6 19 Este 26 Nordeste 0 -- -- 56
2020-02-16 15:00:00 16.4 19 Nordeste 24 Nordeste 0 -- -- 47
2020-02-16 14:00:00 16 16 Este 23 Este 0 -- -- 42
2020-02-16 13:00:00 15.9 15 Este 21 Nordeste 0 -- -- 49
2020-02-16 12:00:00 16.1 9 Nordeste 14 Nordeste 0 -- -- 41
2020-02-16 11:00:00 15.2 0 Calma 10 Nordeste 0 -- -- 48
2020-02-16 10:00:00 13.5 4 Nordeste 8 Oeste 0 -- -- 45
2020-02-16 09:00:00 11.3 5 Sudoeste 16 Sur 0 -- -- 43
2020-02-16 08:00:00 9.8 9 Sudoeste 19 Oeste 0 -- -- 47
2020-02-16 07:00:00 8.5 16 Oeste 19 Oeste 0 -- -- 56
2020-02-16 06:00:00 8.3 14 Oeste 26 Oeste 0 -- -- 58
2020-02-16 05:00:00 8.9 18 Oeste 21 Oeste 0 -- -- 55
2020-02-16 04:00:00 8.9 16 Sudoeste 20 Sudoeste 0 -- -- 55
2020-02-16 03:00:00 10.1 18 Sudoeste 21 Oeste 0 -- -- 52
2020-02-16 02:00:00 9.6 20 Oeste 26 Oeste 0 -- -- 64
2020-02-16 01:00:00 9.6 22 Oeste 26 Oeste 0 -- -- 75
2020-02-16 00:00:00 10.3 20 Oeste 23 Oeste 0 -- -- 78
2020-02-15 23:00:00 10.4 16 Oeste 18 Oeste 0 -- -- 79
2020-02-15 22:00:00 11.4 7 Sudoeste 12 Sudoeste 0 -- -- 77
2020-02-15 21:00:00 12 8 Sur 11 Sudeste 0 -- -- 74
2020-02-15 20:00:00 12.4 6 Este 11 Este 0 -- -- 72
2020-02-15 19:00:00 12.6 8 Nordeste 12 Este 0 -- -- 72
2020-02-15 18:00:00 13.7 6 Este 12 Este 0 -- -- 67
2020-02-15 17:00:00 14 10 Este 23 Este 0 -- -- 66
2020-02-15 16:00:00 14.1 14 Este 19 Este 0 -- -- 65
2020-02-15 15:00:00 14.1 13 Nordeste 21 Nordeste 0 -- -- 67
2020-02-15 14:00:00 14.3 13 Nordeste 21 Nordeste 0 -- -- 68
2020-02-15 13:00:00 14.3 12 Este 19 Nordeste 0 -- -- 70
2020-02-15 12:00:00 14.9 9 Nordeste 17 Este 0 -- -- 65
2020-02-15 11:00:00 12.7 3 Oeste 14 Oeste 0 -- -- 70
2020-02-15 10:00:00 9.6 11 Oeste 14 Oeste 0 -- -- 78
2020-02-15 09:00:00 8.1 6 Sudoeste 12 Oeste 0 -- -- 80
2020-02-15 08:00:00 8.5 3 Oeste 14 Oeste 0 -- -- 77
2020-02-15 07:00:00 7.8 8 Oeste 14 Oeste 0 -- -- 82
2020-02-15 06:00:00 7.3 11 Oeste 13 Oeste 0 -- -- 87
2020-02-15 05:00:00 9 9 Sur 12 Oeste 0 -- -- 79
2020-02-15 04:00:00 9 10 Oeste 16 Oeste 0 -- -- 83
2020-02-15 03:00:00 7.3 16 Oeste 20 Oeste 0 -- -- 89
2020-02-15 02:00:00 7.3 14 Oeste 18 Oeste 0 -- -- 88
2020-02-15 01:00:00 8.5 12 Sudoeste 16 Sur 0 -- -- 84
2020-02-15 00:00:00 9.3 14 Sur 16 Sur 0 -- -- 81
2020-02-14 23:00:00 9.3 15 Sur 18 Sur 0 -- -- 79
2020-02-14 22:00:00 10 10 Sur 14 Sur 0 -- -- 76
2020-02-14 21:00:00 10.9 3 Sudeste 4 Sudoeste 0 -- -- 74
2020-02-14 20:00:00 11.1 2 Nordeste 8 Norte 0 -- -- 73
2020-02-14 19:00:00 11.4 6 Norte 13 Nordeste 0 -- -- 71
2020-02-14 18:00:00 12.3 11 Nordeste 18 Nordeste 0 -- -- 68
2020-02-14 17:00:00 13 13 Nordeste 20 Nordeste 0 -- -- 67
2020-02-14 16:00:00 13.6 15 Nordeste 24 Nordeste 0 -- -- 67
2020-02-14 15:00:00 14.8 13 Nordeste 22 Nordeste 0 -- -- 62
2020-02-14 14:00:00 14.8 7 Nordeste 17 Oeste 0 -- -- 62
2020-02-14 13:00:00 13.5 11 Oeste 21 Oeste 0 -- -- 65
2020-02-14 12:00:00 12.3 15 Noroeste 24 Oeste 0 -- -- 68
2020-02-14 11:00:00 10.8 18 Oeste 28 Oeste 0 -- -- 73
2020-02-14 10:00:00 9.1 20 Oeste 29 Oeste 0 -- -- 81
2020-02-14 09:00:00 6.7 21 Oeste 24 Oeste 0 -- -- 88
2020-02-14 08:00:00 6.3 18 Oeste 27 Oeste 0 -- -- 88
2020-02-14 07:00:00 6.7 15 Oeste 29 Oeste 0 -- -- 85
2020-02-14 06:00:00 6.9 24 Oeste 30 Oeste 0 -- -- 85
2020-02-14 05:00:00 7 22 Oeste 25 Oeste 0 -- -- 83
2020-02-14 04:00:00 7.6 22 Oeste 32 Oeste 0 -- -- 82
2020-02-14 03:00:00 8.6 26 Oeste 31 Oeste 0 -- -- 77
2020-02-14 02:00:00 8.2 23 Oeste 37 Oeste 0 -- -- 79
2020-02-14 01:00:00 9.1 28 Oeste 37 Oeste 0 -- -- 75
2020-02-14 00:00:00 8.4 28 Oeste 32 Oeste 0 -- -- 76
2020-02-13 23:00:00 9.3 27 Oeste 33 Oeste 0 -- -- 72
2020-02-13 22:00:00 9.8 23 Oeste 28 Oeste 0 -- -- 72
2020-02-13 21:00:00 10.6 20 Oeste 30 Oeste 0 -- -- 71
2020-02-13 20:00:00 11.3 23 Oeste 32 Oeste 0 -- -- 71
2020-02-13 19:00:00 12.3 25 Oeste 34 Oeste 0 -- -- 68
2020-02-13 18:00:00 14 28 Oeste 38 Oeste 0 -- -- 60
2020-02-13 17:00:00 15.1 18 Noroeste 30 Noroeste 0 -- -- 61
2020-02-13 16:00:00 14.5 24 Noroeste 32 Noroeste 0 -- -- 68
2020-02-13 15:00:00 14.7 14 Norte 24 Norte 0 -- -- 69
2020-02-13 14:00:00 14.4 14 Nordeste 33 Oeste 0 -- -- 71
2020-02-13 13:00:00 15.3 27 Oeste 35 Oeste 0 -- -- 60
2020-02-13 12:00:00 13.6 26 Sudoeste 34 Oeste 0 -- -- 66
2020-02-13 11:00:00 11.9 29 Oeste 36 Oeste 0 -- -- 73
2020-02-13 10:00:00 9.7 13 Oeste 19 Oeste 0 -- -- 83
2020-02-13 09:00:00 8.2 6 Oeste 14 Oeste 0 -- -- 85
2020-02-13 08:00:00 8.8 14 Oeste 23 Oeste 0 -- -- 81
2020-02-13 07:00:00 9.1 10 Oeste 27 Sudoeste 0 -- -- 80
2020-02-13 06:00:00 8.4 14 Sudoeste 23 Sudoeste 0 -- -- 85
2020-02-13 05:00:00 8.2 17 Oeste 19 Oeste 0 -- -- 88
2020-02-13 04:00:00 7.8 16 Oeste 19 Sudoeste 0 -- -- 93
2020-02-13 03:00:00 8 15 Oeste 17 Oeste 0 -- -- 93
2020-02-13 02:00:00 8.4 9 Oeste 13 Oeste 0 -- -- 92
2020-02-13 01:00:00 8.3 9 Oeste 12 Sur 0 -- -- 92
2020-02-13 00:00:00 8.9 3 Nordeste 9 Sudoeste 0 -- -- 90
2020-02-12 23:00:00 8.8 8 Sudoeste 13 Sur 0 -- -- 90
2020-02-12 22:00:00 9.4 4 Sudeste 6 Sudeste 0 -- -- 90
2020-02-12 21:00:00 9.3 2 Nordeste 6 Este 0 -- -- 88
2020-02-12 20:00:00 9.4 6 Este 12 Este 0 -- -- 85
2020-02-12 19:00:00 9.6 11 Este 20 Este 0 -- -- 84
2020-02-12 18:00:00 10.3 17 Este 22 Nordeste 0 -- -- 80
2020-02-12 17:00:00 10.9 15 Nordeste 24 Este 0 -- -- 76
2020-02-12 16:00:00 11.4 18 Este 23 Este 0 -- -- 75
2020-02-12 15:00:00 12 15 Nordeste 19 Este 0 -- -- 72
2020-02-12 14:00:00 11.9 11 Este 15 Este 0 -- -- 73
2020-02-12 13:00:00 11.9 6 Este 15 Nordeste 0 -- -- 71
2020-02-12 12:00:00 12 5 Nordeste 10 Nordeste 0 -- -- 71
2020-02-12 11:00:00 9.8 7 Oeste 12 Oeste 0 -- -- 81
2020-02-12 10:00:00 8.6 11 Oeste 14 Oeste 0 -- -- 86
2020-02-12 09:00:00 8.1 13 Oeste 18 Oeste 0 -- -- 88
2020-02-12 08:00:00 8 15 Oeste 20 Oeste 0 -- -- 87
2020-02-12 07:00:00 8.6 14 Noroeste 19 Noroeste 0 -- -- 82
2020-02-12 06:00:00 9.2 10 Norte 14 Norte 0 -- -- 78
2020-02-12 05:00:00 9.4 6 Oeste 11 Sudoeste 0 -- -- 81
2020-02-12 04:00:00 9.1 12 Sudoeste 15 Sudoeste 0 -- -- 83
2020-02-12 03:00:00 9.3 13 Oeste 21 Oeste 0 -- -- 82
2020-02-12 02:00:00 9.3 16 Oeste 19 Oeste 0 -- -- 83
2020-02-12 01:00:00 9.9 14 Oeste 21 Oeste 0 -- -- 79
2020-02-12 00:00:00 10 14 Oeste 21 Oeste 0 -- -- 79
2020-02-11 23:00:00 10.1 17 Oeste 22 Oeste 0 -- -- 79
2020-02-11 22:00:00 10.3 18 Oeste 28 Oeste 0 -- -- 78
2020-02-11 21:00:00 10.4 22 Noroeste 31 Noroeste 0 -- -- 78
2020-02-11 20:00:00 10.5 19 Noroeste 26 Noroeste 0 -- -- 79
2020-02-11 19:00:00 11.1 9 Noroeste 23 Noroeste 0 -- -- 77
2020-02-11 18:00:00 11.6 15 Noroeste 24 Noroeste 0 -- -- 76
2020-02-11 17:00:00 12.8 18 Noroeste 36 Noroeste 0 -- -- 70
2020-02-11 16:00:00 13.8 26 Noroeste 38 Noroeste 0 -- -- 68
2020-02-11 15:00:00 13.7 33 Noroeste 42 Noroeste 0 -- -- 68
2020-02-11 14:00:00 14.5 31 Noroeste 42 Norte 0 -- -- 65
2020-02-11 13:00:00 14.6 28 Noroeste 39 Noroeste 0 -- -- 66
2020-02-11 12:00:00 14.4 20 Noroeste 37 Oeste 0 -- -- 67
2020-02-11 11:00:00 13.3 30 Oeste 37 Oeste 0 -- -- 64
2020-02-11 10:00:00 11.2 23 Oeste 33 Oeste 0 -- -- 72
2020-02-11 09:00:00 10.1 28 Oeste 41 Oeste 0 -- -- 75
2020-02-11 08:00:00 9.7 37 Oeste 44 Oeste 0 -- -- 78
2020-02-11 07:00:00 10 37 Oeste 45 Oeste 0 -- -- 77
2020-02-11 06:00:00 10.4 23 Oeste 36 Oeste 0 -- -- 77
2020-02-11 05:00:00 10.4 28 Oeste 43 Oeste 0 -- -- 77
2020-02-11 04:00:00 10.1 18 Oeste 34 Oeste 0 -- -- 78
2020-02-11 03:00:00 10.9 31 Oeste 49 Sudoeste 0 -- -- 76
2020-02-11 02:00:00 10.9 26 Oeste 40 Sudoeste 0 -- -- 78
2020-02-11 01:00:00 10.7 36 Sudoeste 42 Sudoeste 0 -- -- 80
2020-02-11 00:00:00 10.8 24 Sudoeste 39 Sudoeste 0 -- -- 80
2020-02-10 23:00:00 11.1 28 Sudoeste 37 Sudoeste 0 -- -- 78
2020-02-10 22:00:00 10.9 22 Oeste 29 Oeste 0 -- -- 78
2020-02-10 21:00:00 12.4 12 Oeste 24 Sudoeste 0 -- -- 69
2020-02-10 20:00:00 13.8 17 Oeste 20 Oeste 0 -- -- 60
2020-02-10 19:00:00 15.3 13 Oeste 17 Oeste 0 -- -- 55
2020-02-10 18:00:00 17.5 17 Oeste 26 Oeste 0 -- -- 52
2020-02-10 17:00:00 18.7 19 Oeste 32 Oeste 0 -- -- 48
2020-02-10 16:00:00 18.3 26 Oeste 39 Sudoeste 0 -- -- 49
2020-02-10 15:00:00 18.1 26 Oeste 35 Oeste 0 -- -- 53
2020-02-10 14:00:00 16.9 25 Oeste 38 Oeste 0 -- -- 57
2020-02-10 13:00:00 16.1 31 Oeste 40 Oeste 0 -- -- 60
2020-02-10 12:00:00 14.8 30 Oeste 44 Oeste 0 -- -- 64
2020-02-10 11:00:00 13.3 38 Oeste 50 Oeste 0 -- -- 68
2020-02-10 10:00:00 12 40 Oeste 50 Sudoeste 0 -- -- 72
2020-02-10 09:00:00 10.8 42 Oeste 52 Oeste 0 -- -- 76
2020-02-10 08:00:00 9.8 40 Oeste 52 Oeste 0 -- -- 79
2020-02-10 07:00:00 9.8 31 Oeste 39 Oeste 0 -- -- 79
2020-02-10 06:00:00 9.8 26 Oeste 41 Oeste 0 -- -- 77
2020-02-10 05:00:00 9.8 34 Oeste 47 Oeste 0 -- -- 76
2020-02-10 04:00:00 10.1 37 Sudoeste 44 Oeste 0 -- -- 73
2020-02-10 03:00:00 10.1 39 Sudoeste 50 Sudoeste 0 -- -- 72
2020-02-10 02:00:00 10.1 39 Sudoeste 48 Oeste 0 -- -- 71
2020-02-10 01:00:00 10.1 39 Sudoeste 48 Sudoeste 0 -- -- 70
2020-02-10 00:00:00 9.8 39 Sudoeste 50 Sudoeste 0 -- -- 70
2020-02-09 23:00:00 9.6 40 Sudoeste 48 Sudoeste 0 -- -- 69
2020-02-09 22:00:00 9.4 30 Sudoeste 37 Sudoeste 0 -- -- 68
2020-02-09 21:00:00 9.8 28 Oeste 36 Oeste 0 -- -- 67
2020-02-09 20:00:00 9.7 23 Oeste 27 Oeste 0 -- -- 69
2020-02-09 19:00:00 10.5 5 Sudoeste 10 Norte 0 -- -- 75
2020-02-09 18:00:00 11.1 8 Nordeste 19 Este 0 -- -- 71
2020-02-09 17:00:00 12.5 14 Este 18 Este 0 -- -- 64
2020-02-09 16:00:00 14.8 12 Oeste 21 Oeste 0 -- -- 50
2020-02-09 15:00:00 14.7 6 Oeste 31 Noroeste 0 -- -- 52
2020-02-09 14:00:00 14 19 Oeste 28 Oeste 0 -- -- 51
2020-02-09 13:00:00 13 18 Oeste 27 Oeste 0 -- -- 56
2020-02-09 12:00:00 11.7 19 Oeste 29 Sudoeste 0 -- -- 60
2020-02-09 11:00:00 9.9 17 Oeste 26 Oeste 0 -- -- 70
2020-02-09 10:00:00 6.7 14 Oeste 24 Oeste 0 -- -- 83
2020-02-09 09:00:00 4.7 22 Oeste 27 Oeste 0 -- -- 91
2020-02-09 08:00:00 5.1 16 Oeste 26 Oeste 0 -- -- 90
2020-02-09 07:00:00 5.1 21 Oeste 23 Oeste 0 -- -- 91
2020-02-09 06:00:00 5.2 20 Oeste 23 Oeste 0 -- -- 94
2020-02-09 05:00:00 5.4 17 Oeste 23 Oeste 0 -- -- 94
2020-02-09 04:00:00 6.8 15 Oeste 18 Oeste 0 -- -- 86
2020-02-09 03:00:00 7.7 9 Oeste 11 Oeste 0 -- -- 83
2020-02-09 02:00:00 7.5 10 Sudoeste 15 Sur 0 -- -- 88
2020-02-09 01:00:00 8 8 Sudoeste 14 Sudoeste 0 -- -- 88
2020-02-09 00:00:00 8 10 Sudoeste 18 Sudoeste 0 -- -- 88
2020-02-08 23:00:00 7.2 16 Oeste 20 Oeste 0 -- -- 92
2020-02-08 22:00:00 7.3 15 Oeste 18 Oeste 0 -- -- 87
2020-02-08 21:00:00 7.7 4 Este 9 Este 0 -- -- 89
2020-02-08 20:00:00 7.9 5 Este 11 Este 0 -- -- 92
2020-02-08 19:00:00 8.2 7 Este 13 Nordeste 0 -- -- 88
2020-02-08 18:00:00 11 2 Sur 9 Este 0 -- -- 73
2020-02-08 17:00:00 11.4 6 Este 12 Este 0 -- -- 76
2020-02-08 16:00:00 11 4 Este 15 Nordeste 0 -- -- 76
2020-02-08 15:00:00 10.9 9 Este 22 Este 0 -- -- 77
2020-02-08 14:00:00 10.5 10 Este 16 Este 0 -- -- 79
2020-02-08 13:00:00 11.1 11 Nordeste 15 Nordeste 0 -- -- 76
2020-02-08 12:00:00 10.3 8 Este 20 Noroeste 0 -- -- 75
2020-02-08 11:00:00 9.4 15 Oeste 20 Oeste 0 -- -- 76
2020-02-08 10:00:00 7.3 11 Oeste 19 Oeste 0 -- -- 81
2020-02-08 09:00:00 5.9 19 Oeste 23 Oeste 0 -- -- 85
2020-02-08 08:00:00 5.7 21 Oeste 26 Oeste 0 -- -- 85
2020-02-08 07:00:00 5.2 24 Oeste 26 Oeste 0 -- -- 89
2020-02-08 06:00:00 5.9 19 Oeste 26 Sudoeste 0 -- -- 85
2020-02-08 05:00:00 5.1 20 Oeste 24 Oeste 0 -- -- 88
2020-02-08 04:00:00 5.4 13 Oeste 18 Sudoeste 0 -- -- 87
2020-02-08 03:00:00 5 10 Sudoeste 17 Oeste 0 -- -- 91
2020-02-08 02:00:00 4.9 9 Oeste 13 Oeste 0 -- -- 93
2020-02-08 01:00:00 4.9 11 Oeste 13 Oeste 0 -- -- 92
2020-02-08 00:00:00 5.3 8 Oeste 10 Noroeste 0 -- -- 89
2020-02-07 23:00:00 6.4 6 Norte 10 Noroeste 0 -- -- 86
2020-02-07 22:00:00 6.9 6 Sudoeste 8 Sudoeste 0 -- -- 88
2020-02-07 21:00:00 6.1 8 Sudoeste 11 Sudoeste 0 -- -- 92
2020-02-07 20:00:00 6.5 9 Sudoeste 12 Sudoeste 0 -- -- 90
2020-02-07 19:00:00 7 3 Este 7 Este 0 -- -- 89
2020-02-07 18:00:00 7.9 6 Este 10 Nordeste 0 -- -- 86
2020-02-07 17:00:00 8.6 9 Este 13 Este 0 -- -- 81
2020-02-07 16:00:00 8.7 8 Nordeste 16 Nordeste 0 -- -- 80
2020-02-07 15:00:00 8.9 8 Nordeste 14 Este 0 -- -- 80
2020-02-07 14:00:00 7.6 10 Este 15 Este 0 -- -- 86
2020-02-07 13:00:00 7.4 6 Nordeste 12 Nordeste 0 -- -- 85
2020-02-07 12:00:00 7 8 Nordeste 12 Nordeste 0 -- -- 84
2020-02-07 11:00:00 6.3 6 Nordeste 11 Nordeste 0 -- -- 87
2020-02-07 10:00:00 4.9 4 Norte 14 Oeste 0 -- -- 90
2020-02-07 09:00:00 3.3 11 Oeste 17 Oeste 0 -- -- 94
2020-02-07 08:00:00 3.1 12 Oeste 14 Oeste 0 -- -- 92
2020-02-07 07:00:00 4.3 4 Este 6 Nordeste 0 -- -- 91
2020-02-07 06:00:00 4.4 3 Este 9 Este 0 -- -- 91
2020-02-07 05:00:00 5.2 2 Nordeste 5 Este 0 -- -- 90
2020-02-07 04:00:00 5.6 0 Calma 4 Sudoeste 0 -- -- 82
2020-02-07 03:00:00 6.2 0 Calma 8 Sur 0 -- -- 82
2020-02-07 02:00:00 5.9 4 Sudoeste 8 Sudoeste 0 -- -- 79
2020-02-07 01:00:00 6.1 0 Calma 6 Sur 0 -- -- 82
2020-02-07 00:00:00 6 6 Sudoeste 8 Sudoeste 0 -- -- 82
2020-02-06 23:00:00 6.3 4 Oeste 17 Oeste 0 -- -- 83
2020-02-06 22:00:00 5.9 15 Oeste 18 Oeste 0 -- -- 83
2020-02-06 21:00:00 7.7 4 Sur 11 Este 0 -- -- 76
2020-02-06 20:00:00 8.1 8 Este 11 Este 0 -- -- 77
2020-02-06 19:00:00 8.6 9 Este 10 Este 0 -- -- 76
2020-02-06 18:00:00 9.1 10 Este 17 Este 0 -- -- 74
2020-02-06 17:00:00 9.4 14 Este 22 Este 0 -- -- 71
2020-02-06 16:00:00 9.4 19 Este 24 Este 0 -- -- 70
2020-02-06 15:00:00 9.6 18 Nordeste 22 Este 0 -- -- 65
2020-02-06 14:00:00 9.3 14 Nordeste 20 Nordeste 0 -- -- 68
2020-02-06 13:00:00 9.5 13 Nordeste 18 Nordeste 0 -- -- 65
2020-02-06 12:00:00 9.7 12 Este 16 Este 0 -- -- 52
2020-02-06 11:00:00 8.3 0 Calma 9 Oeste 0 -- -- 54
2020-02-06 10:00:00 6.4 3 Este 9 Este 0 -- -- 65
2020-02-06 09:00:00 4.9 3 Sur 18 Oeste 0 -- -- 58
2020-02-06 08:00:00 1.8 13 Oeste 18 Oeste 0 -- -- 86
2020-02-06 07:00:00 3.1 4 Oeste 8 Oeste 0 -- -- 77
2020-02-06 06:00:00 4 8 Sudoeste 10 Sur 0 -- -- 70
2020-02-06 05:00:00 3.5 8 Sur 13 Oeste 0 -- -- 83
2020-02-06 04:00:00 3.2 10 Oeste 24 Oeste 0 -- -- 84
2020-02-06 03:00:00 1.8 17 Oeste 31 Oeste 0 -- -- 90
2020-02-06 02:00:00 6 15 Este 18 Este 0 -- -- 69
2020-02-06 01:00:00 4.5 7 Sudoeste 9 Sudoeste 0 -- -- 80
2020-02-06 00:00:00 4.6 6 Sudoeste 10 Este 0 -- -- 79
2020-02-05 23:00:00 5.5 5 Este 12 Sudoeste 0 -- -- 75
2020-02-05 22:00:00 5 11 Sudoeste 13 Sudoeste 0 -- -- 79
2020-02-05 21:00:00 5.9 7 Sur 10 Sudoeste 0 -- -- 75
2020-02-05 20:00:00 6.1 3 Sur 6 Sudoeste 0 -- -- 72
2020-02-05 19:00:00 6.5 3 Este 8 Nordeste 0 -- -- 69
2020-02-05 18:00:00 7 7 Nordeste 16 Nordeste 0 -- -- 69
2020-02-05 17:00:00 7.8 13 Nordeste 16 Nordeste 0 -- -- 66
2020-02-05 16:00:00 8.6 6 Nordeste 15 Nordeste 0 -- -- 61
2020-02-05 15:00:00 9.1 9 Nordeste 16 Oeste 0 -- -- 59
2020-02-05 14:00:00 9.5 9 Noroeste 17 Norte 0 -- -- 60
2020-02-05 13:00:00 8.1 8 Oeste 17 Oeste 0 -- -- 64
2020-02-05 12:00:00 6.9 13 Oeste 26 Oeste 0 -- -- 67
2020-02-05 11:00:00 5.3 19 Oeste 28 Oeste 0 -- -- 74
2020-02-05 10:00:00 3.8 21 Oeste 31 Oeste 0 -- -- 78
2020-02-05 09:00:00 2.6 21 Oeste 27 Oeste 0 -- -- 83
2020-02-05 08:00:00 2.2 18 Oeste 29 Oeste 0 -- -- 85
2020-02-05 07:00:00 2.4 20 Oeste 29 Oeste 0 -- -- 84
2020-02-05 06:00:00 2.7 18 Oeste 29 Oeste 0 -- -- 83
2020-02-05 05:00:00 3.2 25 Oeste 38 Oeste 0 -- -- 80
2020-02-05 04:00:00 3.3 26 Oeste 49 Oeste 0 -- -- 79
2020-02-05 03:00:00 3.8 26 Oeste 52 Oeste 0 -- -- 77
2020-02-05 02:00:00 4.1 40 Oeste 51 Oeste 0 -- -- 77
2020-02-05 01:00:00 4.4 16 Oeste 36 Noroeste 0 -- -- 76
2020-02-05 00:00:00 5.2 27 Oeste 51 Oeste 0 -- -- 71
2020-02-04 23:00:00 5.5 48 Oeste 94 Oeste 0 -- -- 71
2020-02-04 22:00:00 6.3 76 Oeste 95 Oeste 0 -- -- 68
2020-02-04 21:00:00 6.9 61 Oeste 76 Oeste 0 -- -- 72
2020-02-04 20:00:00 8 60 Oeste 72 Oeste 0 -- -- 78
2020-02-04 19:00:00 9.4 51 Oeste 68 Oeste 0 -- -- 73
2020-02-04 18:00:00 11 54 Oeste 81 Oeste 0 -- -- 69
2020-02-04 12:00:00 -- -- -- -- -- -- -- -- --
2020-02-04 11:00:00 11.7 33 Oeste 55 Noroeste 0 -- -- 76
2020-02-04 10:00:00 10.5 28 Oeste 42 Oeste 0 -- -- 79
2020-02-04 09:00:00 9.6 26 Oeste 36 Noroeste 0 -- -- 77
2020-02-04 08:00:00 9 19 Oeste 30 Oeste 0 -- -- 80
2020-02-04 07:00:00 8.9 27 Oeste 31 Oeste 0 -- -- 77
2020-02-04 06:00:00 10.5 23 Oeste 31 Oeste 0 -- -- 69
2020-02-04 05:00:00 11.3 29 Oeste 40 Oeste 0 -- -- 65
2020-02-04 04:00:00 13 22 Oeste 32 Oeste 0 -- -- 55
2020-02-04 03:00:00 13.2 18 Oeste 40 Oeste 0 -- -- 52
2020-02-04 02:00:00 14.2 38 Oeste 56 Oeste 0 -- -- 50
2020-02-04 01:00:00 14.9 45 Oeste 58 Oeste 0 -- -- 48
2020-02-04 00:00:00 14.1 35 Oeste 44 Sudoeste 0 -- -- 52
2020-02-03 23:00:00 15 40 Sudoeste 51 Sudoeste 0 -- -- 48
2020-02-03 22:00:00 12.4 28 Oeste 36 Oeste 0 -- -- 69
2020-02-03 21:00:00 13.3 24 Oeste 27 Oeste 0 -- -- 71
2020-02-03 20:00:00 14.9 10 Sudoeste 14 Sudoeste 0 -- -- 64
2020-02-03 19:00:00 15.8 6 Sudoeste -- -- 0 -- -- 63
2020-02-03 18:00:00 16.7 7 Este 12 Este 0 -- -- 59
2020-02-03 17:00:00 17.8 10 Este 14 Este 0 -- -- 59
2020-02-03 16:00:00 18.6 11 Este 15 Nordeste 0 -- -- 54
2020-02-03 15:00:00 20.1 8 Nordeste 10 Nordeste 0 -- -- 40
2020-02-03 14:00:00 19.4 8 Oeste 14 Oeste 0 -- -- 43
2020-02-03 13:00:00 18 11 Oeste 16 Oeste 0 -- -- 51
2020-02-03 12:00:00 15.8 15 Oeste 21 Oeste 0 -- -- 64
2020-02-03 11:00:00 13.1 17 Oeste 25 Oeste 0 -- -- 72
2020-02-03 10:00:00 11.4 22 Oeste 27 Oeste 0 -- -- 76
2020-02-03 09:00:00 10.3 22 Oeste 29 Oeste 0 -- -- 80
2020-02-03 08:00:00 10.2 23 Oeste 34 Sudoeste 0 -- -- 82
2020-02-03 07:00:00 10.1 21 Sudoeste 30 Oeste 0 -- -- 84
2020-02-03 06:00:00 9.9 26 Oeste 35 Oeste 0 -- -- 84
2020-02-03 05:00:00 10 30 Oeste 34 Oeste 0 -- -- 84
2020-02-03 04:00:00 10.8 19 Oeste 28 Oeste 0 -- -- 80
2020-02-03 03:00:00 10.5 22 Oeste 27 Oeste 0 -- -- 82
2020-02-03 02:00:00 12.5 19 Sudoeste 30 Oeste 0 -- -- 74
2020-02-03 01:00:00 11 25 Oeste 28 Oeste 0 -- -- 80
2020-02-03 00:00:00 11.6 24 Oeste 27 Oeste 0 -- -- 78
2020-02-02 23:00:00 12.7 15 Oeste 23 Oeste 0 -- -- 73
2020-02-02 22:00:00 13.3 18 Oeste 28 Sudoeste 0 -- -- 71
2020-02-02 21:00:00 13.7 20 Oeste 24 Oeste 0 -- -- 69
2020-02-02 20:00:00 14.6 16 Oeste 19 Oeste 0 -- -- 64
2020-02-02 19:00:00 16.4 8 Oeste 12 Oeste 0 -- -- 61
2020-02-02 18:00:00 18 4 Norte 14 Oeste 0 -- -- 60
2020-02-02 17:00:00 19.5 12 Oeste 22 Oeste 0 -- -- 53
2020-02-02 16:00:00 19.1 11 Oeste 21 Oeste 0 -- -- 54
2020-02-02 15:00:00 18.7 13 Oeste 26 Oeste 0 -- -- 55
2020-02-02 14:00:00 17.8 18 Oeste 28 Oeste 0 -- -- 59
2020-02-02 13:00:00 16.5 26 Oeste 42 Oeste 0 -- -- 62
2020-02-02 12:00:00 15.1 35 Oeste 46 Oeste 0 -- -- 65
2020-02-02 11:00:00 13.3 34 Oeste 44 Oeste 0 -- -- 72
2020-02-02 10:00:00 12 34 Oeste 43 Oeste 0 -- -- 76
2020-02-02 09:00:00 10.7 32 Oeste 48 Sudoeste 0 -- -- 80
2020-02-02 08:00:00 11 37 Oeste 54 Sudoeste 0 -- -- 79
2020-02-02 07:00:00 11.3 40 Oeste 48 Oeste 0 -- -- 78
2020-02-02 06:00:00 11.3 37 Oeste 44 Oeste 0 -- -- 78
2020-02-02 05:00:00 11.4 34 Oeste 44 Oeste 0 -- -- 79
2020-02-02 04:00:00 11.2 35 Oeste 48 Sudoeste 0 -- -- 81
2020-02-02 03:00:00 11.6 41 Oeste 52 Oeste 0 -- -- 80
2020-02-02 02:00:00 11.6 34 Sudoeste 40 Sudoeste 0 -- -- 79
2020-02-02 01:00:00 11.9 31 Sudoeste 45 Oeste 0 -- -- 79
2020-02-02 00:00:00 12.8 36 Oeste 45 Oeste 0 -- -- 76
2020-02-01 23:00:00 12.4 33 Sudoeste 41 Oeste 0 -- -- 76
2020-02-01 22:00:00 12.5 30 Oeste 35 Oeste 0 -- -- 76
2020-02-01 21:00:00 11.8 19 Sudoeste 26 Sudoeste 0 -- -- 78
2020-02-01 20:00:00 12.4 22 Oeste 30 Oeste 0 -- -- 76
2020-02-01 19:00:00 13.4 21 Oeste 30 Oeste 0 -- -- 73
2020-02-01 18:00:00 14.9 26 Oeste 46 Oeste 0 -- -- 66
2020-02-01 17:00:00 16.6 33 Oeste 46 Oeste 0 -- -- 63
2020-02-01 16:00:00 16.6 24 Oeste 40 Oeste 0 -- -- 64
2020-02-01 15:00:00 16.8 25 Noroeste 41 Oeste 0 -- -- 61
2020-02-01 14:00:00 17.9 32 Oeste 42 Oeste 0 -- -- 61
2020-02-01 13:00:00 16.5 33 Oeste 46 Oeste 0 -- -- 66
2020-02-01 12:00:00 14.9 35 Oeste 55 Oeste 0 -- -- 74
2020-02-01 11:00:00 14.3 39 Oeste 57 Oeste 0 -- -- 75
2020-02-01 10:00:00 13.2 42 Oeste 52 Oeste 0 -- -- 77
2020-02-01 09:00:00 12.1 46 Oeste 59 Oeste 0 -- -- 79
2020-02-01 08:00:00 11.5 37 Oeste 49 Oeste 0 -- -- 80
2020-02-01 07:00:00 11.2 36 Oeste 44 Oeste 0.2 -- -- 81
2020-02-01 06:00:00 10.6 28 Oeste 49 Sudoeste 0 -- -- 82
2020-02-01 05:00:00 11.6 31 Oeste 43 Sudoeste 0 -- -- 73
2020-02-01 04:00:00 10.4 21 Sudoeste 34 Sudoeste 0 -- -- 79
2020-02-01 03:00:00 10.2 27 Sudoeste 40 Sudoeste 0 -- -- 78
2020-02-01 02:00:00 10.5 39 Sudoeste 48 Sudoeste 0 -- -- 77
2020-02-01 01:00:00 10.5 32 Oeste 40 Oeste 0 -- -- 77
2020-02-01 00:00:00 10.4 29 Oeste 39 Oeste 0 -- -- 76
2020-01-31 23:00:00 10.1 27 Sudoeste 32 Sudoeste 0 -- -- 76
2020-01-31 22:00:00 10 26 Sudoeste 33 Sudoeste 0 -- -- 76
2020-01-31 21:00:00 10 29 Sudoeste 36 Oeste 0 -- -- 76
2020-01-31 20:00:00 10.8 30 Sudoeste 37 Oeste 0 -- -- 73
2020-01-31 19:00:00 11.2 16 Oeste 27 Oeste 0 -- -- 75
2020-01-31 18:00:00 13.4 17 Oeste 30 Oeste 0 -- -- 67
2020-01-31 17:00:00 14.7 20 Oeste 30 Oeste 0 -- -- 60
2020-01-31 16:00:00 16.3 26 Oeste 39 Oeste 0 -- -- 58
2020-01-31 15:00:00 15.7 28 Oeste 40 Oeste 0 -- -- 60
2020-01-31 14:00:00 15.4 31 Oeste 42 Oeste 0 -- -- 62
2020-01-31 13:00:00 14.8 30 Oeste 43 Oeste 0 -- -- 67
2020-01-31 12:00:00 13.5 34 Oeste 51 Oeste 0 -- -- 70
2020-01-31 11:00:00 12.2 38 Oeste 50 Oeste 0 -- -- 74
2020-01-31 10:00:00 10.8 34 Oeste 45 Oeste 0 -- -- 79
2020-01-31 09:00:00 9.7 35 Oeste 42 Oeste 0 -- -- 83
2020-01-31 08:00:00 9.2 33 Oeste 40 Oeste 0 -- -- 83
2020-01-31 07:00:00 9.3 32 Oeste 40 Oeste 0 -- -- 83
2020-01-31 06:00:00 9.5 30 Oeste 41 Oeste 0 -- -- 82
2020-01-31 05:00:00 9.7 31 Oeste 40 Oeste 0 -- -- 81
2020-01-31 04:00:00 9.8 13 Oeste 36 Sudoeste 0 -- -- 79
2020-01-31 03:00:00 9.7 26 Oeste 33 Oeste 0 -- -- 79
2020-01-31 02:00:00 9.9 26 Oeste 33 Sudoeste 0 -- -- 77
2020-01-31 01:00:00 9 22 Oeste 36 Oeste 0 -- -- 80
2020-01-31 00:00:00 10 31 Oeste 44 Oeste 0 -- -- 75
2020-01-30 23:00:00 9.5 32 Oeste 44 Oeste 0 -- -- 77
2020-01-30 22:00:00 9.7 33 Oeste 43 Oeste 0 -- -- 75
2020-01-30 21:00:00 9.9 36 Oeste 45 Oeste 0 -- -- 73
2020-01-30 20:00:00 9.8 25 Oeste 33 Oeste 0 -- -- 73
2020-01-30 19:00:00 10.3 11 Oeste 16 Oeste 0 -- -- 69
2020-01-30 18:00:00 11.2 5 Sudoeste 18 Oeste 0 -- -- 64
2020-01-30 17:00:00 11.9 17 Oeste 30 Oeste 0 -- -- 64
2020-01-30 16:00:00 12.1 29 Oeste 53 Sudoeste 0 -- -- 61
2020-01-30 15:00:00 13.4 35 Oeste 62 Oeste 0 -- -- 60
2020-01-30 14:00:00 12.5 46 Oeste 55 Oeste 0 -- -- 60
2020-01-30 13:00:00 13.1 34 Oeste 48 Oeste 0 -- -- 60
2020-01-30 12:00:00 12.2 39 Oeste 46 Oeste 0 -- -- 65
2020-01-30 11:00:00 11.9 12 Oeste 32 Oeste 0 -- -- 69
2020-01-30 10:00:00 9.7 28 Oeste 39 Sudoeste 0 -- -- 75
2020-01-30 09:00:00 9.8 30 Sudoeste 43 Oeste 0 -- -- 74
2020-01-30 08:00:00 9.9 28 Oeste 48 Oeste 0 -- -- 75
2020-01-30 07:00:00 10.1 40 Oeste 51 Oeste 0 -- -- 77
2020-01-30 06:00:00 9.9 33 Oeste 42 Oeste 0 -- -- 77
2020-01-30 05:00:00 9.7 30 Sudoeste 37 Oeste 0 -- -- 78
2020-01-30 04:00:00 9.6 29 Oeste 37 Oeste 0 -- -- 79
2020-01-30 03:00:00 10.2 30 Oeste 41 Oeste 0 -- -- 75
2020-01-30 02:00:00 10.3 27 Oeste 37 Oeste 0 -- -- 75
2020-01-30 01:00:00 10.4 31 Oeste 38 Oeste 0 -- -- 75
2020-01-30 00:00:00 10.6 28 Oeste 38 Oeste 0 -- -- 74
2020-01-29 23:00:00 10.7 32 Oeste 42 Sudoeste 0 -- -- 73
2020-01-29 22:00:00 10.7 35 Sudoeste 39 Sudoeste 0 -- -- 71
2020-01-29 21:00:00 11.1 28 Sudoeste 33 Sudoeste 0 -- -- 69
2020-01-29 20:00:00 11.5 25 Sudoeste 30 Sudoeste 0 -- -- 69
2020-01-29 19:00:00 12 23 Oeste 33 Oeste 0 -- -- 66
2020-01-29 18:00:00 12.3 24 Oeste 36 Oeste 0 -- -- 67
2020-01-29 17:00:00 14.6 30 Oeste 45 Oeste 0 -- -- 58
2020-01-29 16:00:00 14.9 28 Oeste 36 Oeste 0 -- -- 59
2020-01-29 15:00:00 13.6 32 Oeste 42 Oeste 0 -- -- 64
2020-01-29 14:00:00 13.5 33 Oeste 58 Oeste 0 -- -- 65
2020-01-29 13:00:00 14.1 40 Oeste 54 Oeste 0 -- -- 66
2020-01-29 12:00:00 12.9 41 Oeste 53 Sudoeste 0 -- -- 73
2020-01-29 11:00:00 11.9 44 Oeste 58 Oeste 0 -- -- 76
2020-01-29 10:00:00 11.2 31 Oeste 42 Oeste 0 -- -- 79
2020-01-29 09:00:00 10.3 27 Oeste 39 Sudoeste 0 -- -- 80
2020-01-29 08:00:00 10.4 30 Oeste 41 Oeste 0 -- -- 80
2020-01-29 07:00:00 10.2 32 Oeste 46 Oeste 0 -- -- 81
2020-01-29 06:00:00 10.5 37 Oeste 45 Oeste 0 -- -- 80
2020-01-29 05:00:00 10.2 31 Sudoeste 42 Oeste 0 -- -- 78
2020-01-29 04:00:00 10.4 28 Sudoeste 46 Oeste 0 -- -- 77
2020-01-29 03:00:00 10.3 39 Sudoeste 48 Sudoeste 0 -- -- 77
2020-01-29 02:00:00 10.3 37 Sudoeste 53 Sudoeste 0 -- -- 78
2020-01-29 01:00:00 10.3 34 Sudoeste 51 Oeste 0 -- -- 80
2020-01-29 00:00:00 10.8 39 Sudoeste 49 Sudoeste 0 -- -- 80
2020-01-28 23:00:00 10.5 35 Sudoeste 41 Sudoeste 0 -- -- 81
2020-01-28 22:00:00 10.5 27 Sudoeste 36 Sudoeste 0 -- -- 81
2020-01-28 21:00:00 10.6 23 Oeste 29 Oeste 0 -- -- 80
2020-01-28 20:00:00 10.9 23 Oeste 36 Sudoeste 0 -- -- 78
2020-01-28 19:00:00 11.4 33 Oeste 47 Sudoeste 0 -- -- 74
2020-01-28 18:00:00 12.1 28 Oeste 54 Oeste 0 -- -- 72
2020-01-28 17:00:00 12.7 40 Oeste 59 Oeste 0 -- -- 69
2020-01-28 16:00:00 13.5 45 Oeste 62 Oeste 0 -- -- 66
2020-01-28 15:00:00 14.3 43 Oeste 61 Oeste 0 -- -- 65
2020-01-28 14:00:00 14.6 37 Oeste 56 Oeste 0 -- -- 65
2020-01-28 13:00:00 13.5 42 Oeste 51 Oeste 0 -- -- 68
2020-01-28 12:00:00 12.3 40 Oeste 66 Oeste 0 -- -- 71
2020-01-28 11:00:00 10.8 51 Oeste 69 Oeste 0 -- -- 74
2020-01-28 10:00:00 9.9 46 Oeste 74 Sudoeste 0 -- -- 75
2020-01-28 09:00:00 9.6 57 Oeste 75 Oeste 0 -- -- 75
2020-01-28 08:00:00 9.2 48 Oeste 69 Oeste 0 -- -- 74
2020-01-28 07:00:00 8.5 32 Oeste 61 Oeste 0 -- -- 77
2020-01-28 06:00:00 9 39 Oeste 64 Oeste 0 -- -- 73
2020-01-28 05:00:00 8.4 28 Oeste 66 Oeste 0 -- -- 74
2020-01-28 04:00:00 8.8 56 Oeste 69 Oeste 0 -- -- 72
2020-01-28 03:00:00 8 29 Oeste 65 Oeste 0 -- -- 74
2020-01-28 02:00:00 8.2 51 Oeste 66 Sudoeste 0 -- -- 72
2020-01-28 01:00:00 7.8 15 Sudoeste 33 Sudoeste 0 -- -- 73
2020-01-28 00:00:00 7.7 26 Sudoeste 36 Sudoeste 0 -- -- 74
2020-01-27 23:00:00 6.9 21 Sudoeste 49 Sudoeste 0 -- -- 77
2020-01-27 22:00:00 7.9 15 Oeste 38 Oeste 0 -- -- 73
2020-01-27 21:00:00 7.6 14 Oeste 30 Sudoeste 0 -- -- 71
2020-01-27 20:00:00 7 19 Sudoeste 35 Oeste 0 -- -- 70
2020-01-27 19:00:00 7.5 26 Sudoeste 34 Sudoeste 0 -- -- 67
2020-01-27 18:00:00 7.1 29 Sudoeste 41 Oeste 0 -- -- 69
2020-01-27 17:00:00 7.9 39 Oeste 52 Oeste 0 -- -- 67
2020-01-27 16:00:00 8.5 18 Oeste 33 Sudoeste 0 -- -- 66
2020-01-27 15:00:00 8.6 14 Sudoeste 31 Sudoeste 0 -- -- 65
2020-01-27 14:00:00 8.2 12 Oeste 31 Oeste 0 -- -- 65
2020-01-27 13:00:00 8.1 16 Oeste 30 Sudoeste 0 -- -- 64
2020-01-27 12:00:00 7.1 21 Sudoeste 29 Sudoeste 0 -- -- 65
2020-01-27 11:00:00 6 14 Oeste 24 Oeste 0 -- -- 69
2020-01-27 10:00:00 4.9 14 Sudoeste 23 Oeste 0 -- -- 72
2020-01-27 09:00:00 3.9 20 Oeste 22 Oeste 0 -- -- 77
2020-01-27 08:00:00 3.6 23 Sudoeste 28 Sudoeste 0 -- -- 76
2020-01-27 07:00:00 3.9 19 Sudoeste 28 Oeste 0 -- -- 76
2020-01-27 06:00:00 4.3 17 Sudoeste 26 Oeste 0 -- -- 75
2020-01-27 05:00:00 4.8 17 Sudoeste 29 Sudoeste 0 -- -- 75
2020-01-27 04:00:00 4.4 26 Sudoeste 46 Oeste 0 -- -- 79
2020-01-27 03:00:00 4.5 36 Oeste 54 Sudoeste 0 -- -- 79
2020-01-27 02:00:00 4.5 42 Sudoeste 50 Sudoeste 0 -- -- 78
2020-01-27 01:00:00 4.9 33 Oeste 40 Oeste 0 -- -- 75
2020-01-27 00:00:00 3.5 18 Sudoeste 24 Sudoeste 0 -- -- 77
2020-01-26 23:00:00 3.7 16 Oeste 20 Oeste 0 -- -- 77
2020-01-26 22:00:00 3.7 17 Oeste 23 Oeste 0 -- -- 78
2020-01-26 21:00:00 4 21 Oeste 24 Oeste 0 -- -- 76
2020-01-26 20:00:00 4.5 23 Oeste 30 Sudoeste 0 -- -- 75
2020-01-26 19:00:00 4.7 20 Sudoeste 28 Sudoeste 0 -- -- 76
2020-01-26 18:00:00 6.2 24 Sudoeste 28 Sudoeste 0 -- -- 71
2020-01-26 17:00:00 7.4 18 Oeste 31 Oeste 0 -- -- 68
2020-01-26 16:00:00 7.1 24 Oeste 36 Oeste 0 -- -- 73
2020-01-26 15:00:00 7 31 Oeste 40 Oeste 0 -- -- 74
2020-01-26 14:00:00 7 26 Oeste 31 Oeste 0 -- -- 78
2020-01-26 13:00:00 6.3 17 Oeste 21 Oeste 0 -- -- 85
2020-01-26 12:00:00 4.8 14 Oeste 24 Oeste 0 -- -- 90
2020-01-26 11:00:00 4.6 23 Oeste 28 Oeste 0 -- -- 89
2020-01-26 10:00:00 3.9 21 Oeste 27 Oeste 0 -- -- 92
2020-01-26 09:00:00 3.2 19 Oeste 25 Oeste 0 -- -- 95
2020-01-26 08:00:00 2.8 19 Oeste 21 Oeste 0 -- -- 93
2020-01-26 07:00:00 3.3 18 Sudoeste 21 Sudoeste 0 -- -- 93
2020-01-26 06:00:00 3.2 13 Sudoeste 19 Oeste 0 -- -- 93
2020-01-26 05:00:00 3.8 9 Oeste 15 Sudoeste 0 -- -- 91
2020-01-26 04:00:00 3.9 12 Oeste 18 Oeste 0 -- -- 94
2020-01-26 03:00:00 3.5 16 Oeste 22 Oeste 0 -- -- 95
2020-01-26 02:00:00 3.3 18 Oeste 22 Oeste 0 -- -- 95
2020-01-26 01:00:00 4.4 14 Oeste 21 Oeste 0 -- -- 87
2020-01-26 00:00:00 5.2 13 Sudoeste 21 Sudoeste 0 -- -- 84
2020-01-25 23:00:00 5 10 Sudoeste 17 Sudoeste 0 -- -- 88
2020-01-25 22:00:00 5.2 10 Sudoeste 22 Sur 0 -- -- 92
2020-01-25 21:00:00 5.3 8 Sur 12 Este 0 -- -- 92
2020-01-25 20:00:00 6.6 8 Este 12 Este 0 -- -- 90
2020-01-25 19:00:00 6.6 6 Este 13 Sudeste 0 -- -- 93
2020-01-25 18:00:00 6.6 5 Este 10 Este 0 -- -- 94
2020-01-25 17:00:00 7 8 Este 10 Este 0 -- -- 90
2020-01-25 16:00:00 7.5 8 Este 9 Este 0 -- -- 86
2020-01-25 15:00:00 7.4 9 Este 14 Este 0 -- -- 85
2020-01-25 14:00:00 7.9 11 Este 20 Este 0 -- -- 82
2020-01-25 13:00:00 7.2 9 Este 12 Este 0 -- -- 77
2020-01-25 12:00:00 6.6 4 Sudoeste 15 Sur 0 -- -- 77
2020-01-25 11:00:00 5.4 13 Sur 18 Sur 0 -- -- 82
2020-01-25 10:00:00 4.6 16 Sudoeste 19 Sudoeste 0 -- -- 82
2020-01-25 09:00:00 4.6 13 Sur 17 Sur 0 -- -- 82
2020-01-25 08:00:00 6.1 7 Sudeste 12 Sur 0 -- -- 73
2020-01-25 07:00:00 4.8 4 Sudoeste 13 Oeste 0 -- -- 80
2020-01-25 06:00:00 5.5 4 Sudoeste 13 Oeste 0 -- -- 78
2020-01-25 05:00:00 3.7 11 Oeste 22 Oeste 0 -- -- 85
2020-01-25 04:00:00 3.7 14 Oeste 19 Oeste 0 -- -- 85
2020-01-25 03:00:00 3.9 12 Sudoeste 15 Sudoeste 0 -- -- 83
2020-01-25 02:00:00 5 3 Sur 12 Sudoeste 0 -- -- 80
2020-01-25 01:00:00 4.3 9 Sudoeste 15 Oeste 0 -- -- 80
2020-01-25 00:00:00 4.3 6 Sudoeste 16 Sur 0 -- -- 81
2020-01-24 23:00:00 6.9 11 Sudeste 20 Este 0 -- -- 71
2020-01-24 22:00:00 6.9 7 Sudeste 10 Sudoeste 0 -- -- 70
2020-01-24 21:00:00 5.5 6 Sudoeste 12 Sudoeste 0 -- -- 76
2020-01-24 20:00:00 5.2 8 Sudoeste 19 Sur 0 -- -- 79
2020-01-24 19:00:00 5.7 12 Sur 14 Sur 0 -- -- 78
2020-01-24 18:00:00 6.7 5 Sudeste 7 Este 0 -- -- 70
2020-01-24 17:00:00 7.2 -- -- -- -- 0 -- -- 72
2020-01-24 16:00:00 6.4 4 Nordeste 12 Oeste 0 -- -- 79
2020-01-24 15:00:00 6 8 Oeste 11 Oeste 0 -- -- 79
2020-01-24 14:00:00 6.3 5 Oeste 14 Oeste 0 -- -- 77
2020-01-24 13:00:00 5.9 9 Oeste 11 Oeste 0 -- -- 79
2020-01-24 12:00:00 5 10 Oeste 14 Oeste 0 -- -- 81
2020-01-24 11:00:00 5 8 Oeste 15 Oeste 0 -- -- 80
2020-01-24 10:00:00 5.2 5 Sudoeste 7 Sudoeste 0 -- -- 81
2020-01-24 09:00:00 4.3 2 Sudoeste 4 Este 0 -- -- 86
2020-01-24 08:00:00 3.7 3 Sudeste 8 Oeste 0 -- -- 89
2020-01-24 07:00:00 4.1 4 Sudoeste 10 Sudoeste 0 -- -- 91
2020-01-24 06:00:00 3.5 9 Sudoeste 14 Sur 0 -- -- 98
2020-01-24 05:00:00 3.3 11 Sudoeste 14 Sur 0 -- -- 99
2020-01-24 04:00:00 3.7 10 Sudoeste 18 Oeste 0 -- -- 100
2020-01-24 03:00:00 2.9 5 Sudoeste 9 Este 0 -- -- 100
2020-01-24 02:00:00 3.8 5 Este 10 Sudeste 0 -- -- 100
2020-01-24 01:00:00 2.6 8 Oeste 21 Oeste 0 -- -- 100
2020-01-24 00:00:00 3.3 12 Sudoeste 22 Sur 0 -- -- 100
2020-01-23 23:00:00 3.5 14 Sudoeste 22 Sur 0 -- -- 100
2020-01-23 22:00:00 3.9 13 Sur 15 Sur 0 -- -- 100
2020-01-23 21:00:00 4.4 8 Sudeste 14 Este 0 -- -- 100
2020-01-23 20:00:00 4.6 10 Este 14 Este 0 -- -- 100
2020-01-23 19:00:00 4.4 9 Este 13 Este 0 -- -- 100
2020-01-23 18:00:00 4.5 6 Este 9 Este 0 -- -- 100
2020-01-23 17:00:00 4.5 6 Este 10 Este 0 -- -- 100
2020-01-23 16:00:00 4.1 6 Este 10 Este 0 -- -- 100
2020-01-23 15:00:00 4 5 Este 10 Este 0 -- -- 100
2020-01-23 14:00:00 3.7 8 Este 10 Este 0 -- -- 100
2020-01-23 13:00:00 4 6 Nordeste 8 Nordeste 0 -- -- 100
2020-01-23 12:00:00 3.6 2 Oeste 11 Oeste 0 -- -- 100
2020-01-23 11:00:00 2.5 8 Oeste 18 Sudoeste 0 -- -- 100
2020-01-23 10:00:00 1.9 14 Sudoeste 17 Sudoeste 0 -- -- 100
2020-01-23 09:00:00 1.6 16 Oeste 19 Oeste 0 -- -- 100
2020-01-23 08:00:00 1.6 13 Oeste 18 Oeste 0 -- -- 100
2020-01-23 07:00:00 1.2 14 Oeste 19 Oeste 0 -- -- 100
2020-01-23 06:00:00 1.4 14 Oeste 17 Oeste 0 -- -- 100
2020-01-23 05:00:00 1.6 11 Oeste 15 Oeste 0 -- -- 100
2020-01-23 04:00:00 1.6 13 Oeste 18 Oeste 0 -- -- 100
2020-01-23 03:00:00 1.6 12 Oeste 14 Oeste 0 -- -- 100
2020-01-23 02:00:00 1.9 10 Oeste 15 Oeste 0.2 -- -- 100
2020-01-23 01:00:00 1.8 10 Oeste 17 Oeste 0.2 -- -- 100
2020-01-23 00:00:00 1.7 11 Oeste 13 Oeste 1.4 -- -- 100
2020-01-22 23:00:00 1.8 9 Sudoeste 18 Oeste 0.8 -- -- 100
2020-01-22 22:00:00 1.6 14 Oeste 18 Oeste 0.2 -- -- 100
2020-01-22 21:00:00 1.5 15 Oeste 21 Oeste 0 -- -- 100
2020-01-22 20:00:00 1.1 17 Oeste 21 Oeste 0 -- -- 100
2020-01-22 19:00:00 1.3 18 Oeste 22 Oeste 0 -- -- 100
2020-01-22 18:00:00 1.4 12 Sudoeste 18 Oeste 0 -- -- 100
2020-01-22 17:00:00 1.5 14 Oeste 21 Oeste 0 -- -- 100
2020-01-22 16:00:00 1.4 19 Oeste 24 Oeste 0 -- -- 100
2020-01-22 15:00:00 1.5 10 Oeste 21 Oeste 0 -- -- 100
2020-01-22 14:00:00 1.5 15 Oeste 18 Oeste 0 -- -- 100
2020-01-22 13:00:00 1.4 13 Oeste 19 Oeste 0 -- -- 100
2020-01-22 12:00:00 1.7 9 Oeste 14 Oeste 0 -- -- 100
2020-01-22 11:00:00 1.7 9 Oeste 14 Oeste 0 -- -- 100
2020-01-22 10:00:00 1.1 10 Oeste 17 Oeste 0 -- -- 100
2020-01-22 09:00:00 0.9 13 Oeste 17 Oeste 0 -- -- 100
2020-01-22 08:00:00 0.8 15 Oeste 20 Oeste -- -- -- 100
2020-01-22 07:00:00 0.8 17 Oeste 21 Oeste -- -- -- 100
2020-01-22 06:00:00 0.6 11 Oeste 21 Oeste -- -- -- 100
2020-01-22 05:00:00 0.8 12 Oeste 18 Oeste -- -- -- 100
2020-01-22 04:00:00 0.8 10 Oeste 22 Oeste -- -- -- 100
2020-01-22 03:00:00 0.4 16 Oeste 21 Oeste -- -- -- 100
2020-01-22 02:00:00 0.3 14 Oeste 21 Oeste -- -- -- 100
2020-01-22 01:00:00 0.1 18 Oeste 21 Oeste -- -- -- 100
2020-01-22 00:00:00 -0.1 16 Oeste 22 Oeste -- -- -- 100
2020-01-21 23:00:00 -0.2 14 Oeste 22 Oeste -- -- -- 100
2020-01-21 22:00:00 1 11 Oeste 14 Este -- -- -- 100
2020-01-21 21:00:00 2.7 5 Nordeste 10 Norte -- -- -- 100
2020-01-21 20:00:00 2.4 6 Oeste 17 Sur -- -- -- 100
2020-01-21 19:00:00 2.3 11 Sudoeste 24 Sur -- -- -- 100
2020-01-21 18:00:00 2.4 18 Sur 29 Sudoeste -- -- -- 100
2020-01-21 17:00:00 2.3 14 Sudoeste 43 Nordeste -- -- -- 100
2020-01-21 16:00:00 3 28 Nordeste 46 Nordeste -- -- -- 100
2020-01-21 15:00:00 2.7 29 Norte 39 Nordeste -- -- -- 100
2020-01-21 14:00:00 1.3 25 Noroeste 42 Oeste -- -- -- 100
2020-01-21 13:00:00 0.4 27 Oeste 36 Noroeste -- -- -- 100
2020-01-21 12:00:00 0.3 24 Noroeste 31 Noroeste -- -- -- 100
2020-01-21 11:00:00 0 17 Noroeste 24 Norte -- -- -- 99
2020-01-21 10:00:00 -0.2 5 Noroeste 30 Noroeste -- -- -- 99
2020-01-21 09:00:00 -0.8 24 Noroeste 35 Noroeste -- -- -- 99
2020-01-21 08:00:00 -1.4 29 Noroeste 39 Noroeste -- -- -- 99
2020-01-21 07:00:00 -1.4 24 Noroeste 35 Noroeste -- -- -- 99
2020-01-21 06:00:00 -1.3 32 Noroeste 41 Noroeste -- -- -- 99
2020-01-21 05:00:00 -0.7 24 Norte 34 Noroeste -- -- -- 99
2020-01-21 04:00:00 -0.8 22 Noroeste 32 Norte -- -- -- 99
2020-01-21 03:00:00 -1.3 21 Noroeste 30 Noroeste -- -- -- 99
2020-01-21 02:00:00 -1.2 22 Noroeste 31 Noroeste -- -- -- 99
2020-01-21 01:00:00 -1.2 22 Noroeste 30 Noroeste -- -- -- 99
2020-01-21 00:00:00 -0.9 18 Norte 28 Norte -- -- -- 99
2020-01-20 23:00:00 -0.4 20 Norte 30 Norte -- -- -- 99
2020-01-20 22:00:00 -0.4 19 Norte 30 Norte -- -- -- 98
2020-01-20 21:00:00 -0.3 19 Norte 30 Norte -- -- -- 98
2020-01-20 20:00:00 -0.4 19 Norte 30 Noroeste -- -- -- 98
2020-01-20 19:00:00 -0.7 21 Noroeste 30 Noroeste -- -- -- 98
2020-01-20 18:00:00 -1.1 23 Noroeste 34 Norte -- -- -- 98
2020-01-20 17:00:00 -1.2 25 Noroeste 34 Noroeste -- -- -- 97
2020-01-20 16:00:00 -0.9 19 Noroeste 25 Noroeste -- -- -- 97
2020-01-20 15:00:00 -1.2 19 Noroeste 27 Noroeste -- -- -- 97
2020-01-20 14:00:00 -1.4 21 Noroeste 31 Noroeste -- -- -- 97
2020-01-20 13:00:00 -1.8 23 Noroeste 32 Noroeste -- -- -- 96
2020-01-20 12:00:00 -1.7 23 Noroeste 31 Noroeste -- -- -- 96
2020-01-20 11:00:00 -2.3 24 Noroeste 32 Oeste -- -- -- 96
2020-01-20 10:00:00 -2.5 21 Noroeste 30 Noroeste 0 -- -- 95
2020-01-20 09:00:00 -2.8 18 Noroeste 27 Noroeste 0 -- -- 93
2020-01-20 08:00:00 -2 11 Noroeste 27 Noroeste 0 -- -- 86
2020-01-20 07:00:00 -1 17 Noroeste 37 Noroeste 0 -- -- 73
2020-01-20 06:00:00 -1.1 27 Noroeste 39 Noroeste 0 -- -- 73
2020-01-20 05:00:00 -0.8 19 Noroeste 48 Noroeste 0 -- -- 70
2020-01-20 04:00:00 -0.7 31 Noroeste 44 Noroeste 0 -- -- 71
2020-01-20 03:00:00 -0.7 29 Noroeste 43 Noroeste 0 -- -- 72
2020-01-20 02:00:00 -0.5 33 Noroeste 45 Noroeste 0 -- -- 71
2020-01-20 01:00:00 0.1 29 Noroeste 45 Noroeste 0 -- -- 68
2020-01-20 00:00:00 0.3 30 Noroeste 41 Noroeste 0 -- -- 66
2020-01-19 23:00:00 0.7 32 Noroeste 44 Noroeste 0 -- -- 67
2020-01-19 22:00:00 0.8 32 Noroeste 48 Noroeste 0 -- -- 67
2020-01-19 21:00:00 1 37 Noroeste 57 Noroeste 0 -- -- 67
2020-01-19 20:00:00 1.3 41 Noroeste 54 Noroeste 0 -- -- 69
2020-01-19 19:00:00 1.8 41 Noroeste 54 Noroeste 0 -- -- 72
2020-01-19 18:00:00 2.6 37 Noroeste 53 Oeste 0 -- -- 76
2020-01-19 17:00:00 3.4 38 Noroeste 47 Noroeste 0 -- -- 79
2020-01-19 16:00:00 3.6 33 Noroeste 46 Noroeste 0 -- -- 82
2020-01-19 15:00:00 3.4 32 Noroeste 48 Noroeste 0 -- -- 92
2020-01-19 14:00:00 3.1 31 Noroeste 42 Noroeste 0.2 -- -- 98
2020-01-19 13:00:00 3.5 27 Noroeste 43 Noroeste 0.8 -- -- 98
2020-01-19 12:00:00 2.6 16 Noroeste 28 Noroeste 2.6 -- -- 97
2020-01-19 11:00:00 1.9 12 Norte 22 Norte 4.2 -- -- 97
2020-01-19 10:00:00 2.6 15 Norte 27 Noroeste 2.8 -- -- 97
2020-01-19 09:00:00 2.9 18 Noroeste 34 Noroeste 1.4 -- -- 97
2020-01-19 08:00:00 2.8 23 Noroeste 34 Oeste 0 -- -- 96
2020-01-19 07:00:00 2.8 19 Oeste 30 Oeste 0 -- -- 95
2020-01-19 06:00:00 2.9 23 Oeste 35 Oeste 0 -- -- 93
2020-01-19 05:00:00 3.3 27 Oeste 48 Oeste 0 -- -- 89
2020-01-19 04:00:00 3.4 32 Oeste 42 Oeste 0 -- -- 90
2020-01-19 03:00:00 3.4 31 Oeste 47 Oeste 0 -- -- 89
2020-01-19 02:00:00 4 20 Oeste 37 Oeste 0 -- -- 90
2020-01-19 01:00:00 4.9 30 Oeste 38 Oeste 0.2 -- -- 92
2020-01-19 00:00:00 5.1 36 Oeste 60 Oeste 0.2 -- -- 91
2020-01-18 23:00:00 5.3 14 Sur 22 Sur 0 -- -- 79
2020-01-18 22:00:00 5.8 10 Sur 13 Norte 0 -- -- 80
2020-01-18 21:00:00 7.1 9 Norte 18 Norte 0 -- -- 72
2020-01-18 20:00:00 7.7 5 Nordeste 10 Este 0 -- -- 67
2020-01-18 19:00:00 8.2 8 Este 15 Este 0 -- -- 64
2020-01-18 18:00:00 8.2 10 Este 14 Este 0 -- -- 67
2020-01-18 17:00:00 8.4 10 Este 17 Este 0 -- -- 66
2020-01-18 16:00:00 8.9 14 Este 23 Este 0 -- -- 62
2020-01-18 15:00:00 9.8 15 Este 22 Este 0 -- -- 51
2020-01-18 14:00:00 10.1 13 Este 18 Este 0 -- -- 50
2020-01-18 13:00:00 10.1 6 Este 10 Este 0 -- -- 50
2020-01-18 12:00:00 8.3 2 Oeste 8 Sur 0 -- -- 59
2020-01-18 11:00:00 5 10 Sur 20 Sur 0 -- -- 69
2020-01-18 10:00:00 5.4 12 Sur 20 Sudeste 0 -- -- 66
2020-01-18 09:00:00 4.9 14 Sudeste 21 Sudeste 0 -- -- 67
2020-01-18 08:00:00 3.7 11 Sur 23 Oeste 0 -- -- 75
2020-01-18 07:00:00 2.6 18 Oeste 28 Oeste 0 -- -- 79
2020-01-18 06:00:00 2.2 16 Oeste 21 Oeste 0 -- -- 80
2020-01-18 05:00:00 2.1 16 Oeste 19 Oeste 0 -- -- 82
2020-01-18 04:00:00 2.9 13 Oeste 14 Sudoeste 0 -- -- 77
2020-01-18 03:00:00 2.4 9 Sudoeste 15 Oeste 0 -- -- 83
2020-01-18 02:00:00 2.4 12 Oeste 16 Oeste 0 -- -- 86
2020-01-18 01:00:00 2.4 12 Oeste 21 Sudoeste 0 -- -- 88
2020-01-18 00:00:00 2.3 19 Oeste 24 Oeste 0 -- -- 89